Time;durP1;ratioP1;P1;durP2;ratioP2;P2;SDS_P1;SDS_P2;PMS_P1;PMS_P2;Temp;Humidity;BMP_temperature;BMP_pressure;BME280_temperature;BME280_humidity;BME280_pressure;Samples;Min_cycle;Max_cycle;Signal;HPM_P1;HPM_P2
2023/02/15 00:01:41;;;;;;;169.52;63.40;;;;;;;;;;5141508;27;20218;-74
2023/02/15 00:04:10;;;;;;;217.57;78.97;;;;;;;;;;5138762;27;20212;-74
2023/02/15 00:06:39;;;;;;;242.38;83.90;;;;;;;;;;5140805;27;20206;-74
2023/02/15 00:09:10;;;;;;;247.73;84.57;;;;;;;;;;5140775;27;20213;-74
2023/02/15 00:11:43;;;;;;;232.57;83.55;;;;;;;;;;5141100;27;20209;-74
2023/02/15 00:14:13;;;;;;;202.07;69.13;;;;;;;;;;5138235;27;20604;-74
2023/02/15 00:16:42;;;;;;;191.23;66.97;;;;;;;;;;5140662;27;20549;-74
2023/02/15 00:19:10;;;;;;;171.52;64.40;;;;;;;;;;5140624;27;20586;-74
2023/02/15 00:21:40;;;;;;;202.32;67.65;;;;;;;;;;5140261;27;20290;-74
2023/02/15 00:24:12;;;;;;;169.30;61.25;;;;;;;;;;5140701;27;20221;-74
2023/02/15 00:26:40;;;;;;;170.68;63.40;;;;;;;;;;5138078;27;20210;-73
2023/02/15 00:29:08;;;;;;;176.68;64.82;;;;;;;;;;5137486;27;20492;-74
2023/02/15 00:31:36;;;;;;;241.40;80.50;;;;;;;;;;5138386;27;20230;-75
2023/02/15 00:34:05;;;;;;;182.52;63.25;;;;;;;;;;5140489;27;20218;-75
2023/02/15 00:36:33;;;;;;;251.07;84.50;;;;;;;;;;5138617;27;20274;-74
2023/02/15 00:39:02;;;;;;;176.65;63.03;;;;;;;;;;5140521;27;20226;-74
2023/02/15 00:41:31;;;;;;;228.48;81.05;;;;;;;;;;5138131;27;20206;-74
2023/02/15 00:43:59;;;;;;;204.77;69.80;;;;;;;;;;5139849;27;20206;-73
2023/02/15 00:46:26;;;;;;;237.07;83.05;;;;;;;;;;5137372;27;20603;-74
2023/02/15 00:48:56;;;;;;;180.93;61.28;;;;;;;;;;5140034;27;20214;-73
2023/02/15 00:51:28;;;;;;;175.07;64.35;;;;;;;;;;5139216;27;20503;-74
2023/02/15 00:53:55;;;;;;;186.48;67.45;;;;;;;;;;5137071;27;20598;-74
2023/02/15 00:56:28;;;;;;;234.38;81.95;;;;;;;;;;5139955;27;20214;-74
2023/02/15 00:58:56;;;;;;;188.98;63.53;;;;;;;;;;5139518;27;20317;-75
2023/02/15 01:01:25;;;;;;;220.25;77.40;;;;;;;;;;5134131;27;20207;-74
2023/02/15 01:03:53;;;;;;;183.52;63.72;;;;;;;;;;5126811;27;20216;-74
2023/02/15 01:06:27;;;;;;;172.23;62.28;;;;;;;;;;5120014;28;20224;-73
2023/02/15 01:08:54;;;;;;;184.80;65.85;;;;;;;;;;5124393;27;20588;-74
2023/02/15 01:11:26;;;;;;;178.55;62.05;;;;;;;;;;5140709;27;20230;-74
2023/02/15 01:13:55;;;;;;;183.65;65.60;;;;;;;;;;5140217;27;20243;-73
2023/02/15 01:16:23;;;;;;;237.85;78.70;;;;;;;;;;5140340;27;20214;-74
2023/02/15 01:18:51;;;;;;;176.35;59.03;;;;;;;;;;5140199;27;20234;-74
2023/02/15 01:21:25;;;;;;;174.93;62.85;;;;;;;;;;5140393;27;20224;-73
2023/02/15 01:23:53;;;;;;;167.50;58.72;;;;;;;;;;5140533;27;20226;-74
2023/02/15 01:26:27;;;;;;;169.32;60.17;;;;;;;;;;5140598;27;20216;-74
2023/02/15 01:28:58;;;;;;;216.82;78.22;;;;;;;;;;5140564;27;20243;-74
2023/02/15 01:31:26;;;;;;;186.45;64.38;;;;;;;;;;5140491;27;20220;-73
2023/02/15 01:33:54;;;;;;;210.35;78.05;;;;;;;;;;5140563;27;20214;-75
2023/02/15 01:36:27;;;;;;;155.23;60.05;;;;;;;;;;5121206;27;20209;-74
2023/02/15 01:38:55;;;;;;;213.25;75.40;;;;;;;;;;5118916;28;20235;-74
2023/02/15 01:41:26;;;;;;;83.70;30.25;;;;;;;;;;5118786;28;20217;-74
2023/02/15 01:44:01;;;;;;;209.18;72.05;;;;;;;;;;5119009;28;20311;-74
2023/02/15 01:46:30;;;;;;;185.00;62.97;;;;;;;;;;5119186;28;20305;-74
2023/02/15 01:49:01;;;;;;;172.40;60.10;;;;;;;;;;5119004;28;20237;-74
2023/02/15 01:51:32;;;;;;;218.88;77.50;;;;;;;;;;5119498;28;20598;-74
2023/02/15 01:54:03;;;;;;;157.55;59.40;;;;;;;;;;5119034;28;20603;-74
2023/02/15 01:56:38;;;;;;;236.50;79.93;;;;;;;;;;5118709;28;20231;-74
2023/02/15 01:59:10;;;;;;;177.15;62.65;;;;;;;;;;5118637;28;20242;-74
2023/02/15 02:01:37;;;;;;;165.93;61.60;;;;;;;;;;5119060;28;20228;-73
2023/02/15 02:04:10;;;;;;;239.75;80.03;;;;;;;;;;5118934;28;20217;-75
2023/02/15 02:06:40;;;;;;;158.20;61.28;;;;;;;;;;5118725;28;20230;-74
2023/02/15 02:09:09;;;;;;;153.70;55.00;;;;;;;;;;5119169;27;20211;-74
2023/02/15 02:11:37;;;;;;;180.15;63.75;;;;;;;;;;5118756;28;20221;-74
2023/02/15 02:14:05;;;;;;;211.65;74.25;;;;;;;;;;5134922;27;20218;-74
2023/02/15 02:16:40;;;;;;;162.35;59.13;;;;;;;;;;5138685;27;20209;-74
2023/02/15 02:19:27;;;;;;;178.60;69.97;;;;;;;;;;5125125;27;20235;-74
2023/02/15 02:22:06;;;;;;;170.65;63.40;;;;;;;;;;5117827;28;20721;-74
2023/02/15 02:24:53;;;;;;;207.88;75.25;;;;;;;;;;5118278;28;20273;-74
2023/02/15 02:27:28;;;;;;;163.18;60.00;;;;;;;;;;5106176;28;20215;-74
2023/02/15 02:30:12;;;;;;;159.88;59.60;;;;;;;;;;5119219;28;20308;-74
2023/02/15 02:32:49;;;;;;;160.75;59.33;;;;;;;;;;5117180;28;20214;-74
2023/02/15 02:35:21;;;;;;;159.07;60.25;;;;;;;;;;5118741;28;20283;-74
2023/02/15 02:38:00;;;;;;;169.23;57.67;;;;;;;;;;5118414;28;20671;-74
2023/02/15 02:40:33;;;;;;;192.55;64.53;;;;;;;;;;5118329;28;20225;-73
2023/02/15 02:43:08;;;;;;;216.70;76.32;;;;;;;;;;5118057;28;20294;-73
2023/02/15 02:45:42;;;;;;;159.85;60.22;;;;;;;;;;5118009;28;20286;-72
2023/02/15 02:48:17;;;;;;;161.00;59.92;;;;;;;;;;5117892;28;20235;-75
2023/02/15 02:50:50;;;;;;;171.52;62.65;;;;;;;;;;5118014;28;20218;-72
2023/02/15 02:53:19;;;;;;;173.02;61.88;;;;;;;;;;5118273;28;20217;-72
2023/02/15 02:55:48;;;;;;;165.50;61.45;;;;;;;;;;5117813;28;20274;-74
2023/02/15 02:58:20;;;;;;;183.50;64.35;;;;;;;;;;5118345;28;20236;-74
2023/02/15 03:00:57;;;;;;;188.90;65.70;;;;;;;;;;5117633;28;20552;-75
2023/02/15 03:03:31;;;;;;;235.00;79.32;;;;;;;;;;5122088;27;20235;-72
2023/02/15 03:06:02;;;;;;;220.20;78.15;;;;;;;;;;5138151;28;20241;-74
2023/02/15 03:08:37;;;;;;;163.07;62.03;;;;;;;;;;5138242;28;20216;-73
2023/02/15 03:11:13;;;;;;;162.38;61.80;;;;;;;;;;5137200;28;20216;-73
2023/02/15 03:13:53;;;;;;;177.95;64.05;;;;;;;;;;5138617;28;20234;-73
2023/02/15 03:16:33;;;;;;;183.05;64.25;;;;;;;;;;5139189;27;20210;-72
2023/02/15 03:19:11;;;;;;;218.18;78.03;;;;;;;;;;5138077;27;20581;-72
2023/02/15 03:21:57;;;;;;;215.73;78.63;;;;;;;;;;5139519;27;20297;-75
2023/02/15 03:24:33;;;;;;;240.30;82.40;;;;;;;;;;5142440;27;20232;-74
2023/02/15 03:27:05;;;;;;;180.70;64.63;;;;;;;;;;5142372;27;20214;-74
2023/02/15 03:29:33;;;;;;;158.32;61.25;;;;;;;;;;5142734;27;20463;-73
2023/02/15 03:32:06;;;;;;;157.80;61.17;;;;;;;;;;5142280;27;20225;-73
2023/02/15 03:34:34;;;;;;;221.05;79.20;;;;;;;;;;5142446;27;20317;-74
2023/02/15 03:37:08;;;;;;;162.48;61.90;;;;;;;;;;5142173;27;20312;-74
2023/02/15 03:39:39;;;;;;;218.98;78.35;;;;;;;;;;5142463;27;20233;-74
2023/02/15 03:42:12;;;;;;;214.23;77.40;;;;;;;;;;5142184;27;20578;-74
2023/02/15 03:44:50;;;;;;;223.35;79.70;;;;;;;;;;5142459;27;20543;-74
2023/02/15 03:47:19;;;;;;;214.23;77.25;;;;;;;;;;5142788;27;20216;-75
2023/02/15 03:49:49;;;;;;;182.98;65.50;;;;;;;;;;5142455;27;20216;-73
2023/02/15 03:52:19;;;;;;;173.15;61.65;;;;;;;;;;5142235;27;20214;-74
2023/02/15 03:54:51;;;;;;;178.32;65.25;;;;;;;;;;5142445;27;20336;-74
2023/02/15 04:03:14;;;;;;;201.50;73.68;;;;;;;;;;5120546;28;20219;-74
2023/02/15 04:05:46;;;;;;;154.43;59.88;;;;;;;;;;5120976;28;20221;-74
2023/02/15 04:08:15;;;;;;;223.60;76.50;;;;;;;;;;5121446;28;20534;-74
2023/02/15 04:10:55;;;;;;;154.93;60.38;;;;;;;;;;5120896;28;20283;-74
2023/02/15 04:13:23;;;;;;;162.95;63.72;;;;;;;;;;5121043;28;20214;-74
2023/02/15 04:16:03;;;;;;;206.15;75.97;;;;;;;;;;5120868;28;20293;-75
2023/02/15 04:26:55;;;;;;;167.90;60.53;;;;;;;;;;5120579;28;20666;-74
2023/02/15 04:29:28;;;;;;;172.80;64.45;;;;;;;;;;5121038;28;20600;-74
2023/02/15 04:31:59;;;;;;;142.07;56.40;;;;;;;;;;5120985;28;20588;-74
2023/02/15 04:34:28;;;;;;;147.45;58.03;;;;;;;;;;5120468;28;20225;-74
2023/02/15 04:36:56;;;;;;;204.13;74.00;;;;;;;;;;5120671;28;20263;-74
2023/02/15 04:39:25;;;;;;;168.52;62.22;;;;;;;;;;5120280;28;20640;-73
2023/02/15 04:41:53;;;;;;;149.15;61.05;;;;;;;;;;5120222;28;20273;-73
2023/02/15 04:44:23;;;;;;;193.95;71.85;;;;;;;;;;5119993;28;20215;-74
2023/02/15 04:46:54;;;;;;;196.88;73.38;;;;;;;;;;5120543;28;20245;-73
2023/02/15 04:49:22;;;;;;;78.32;31.65;;;;;;;;;;5120386;28;20208;-74
2023/02/15 04:51:53;;;;;;;92.20;35.95;;;;;;;;;;5120588;28;20217;-74
2023/02/15 04:54:25;;;;;;;78.68;29.08;;;;;;;;;;5120215;28;20225;-74
2023/02/15 04:56:59;;;;;;;140.07;55.25;;;;;;;;;;5119904;28;20233;-74
2023/02/15 04:59:33;;;;;;;163.20;57.83;;;;;;;;;;5135353;27;20359;-74
2023/02/15 05:02:01;;;;;;;194.23;73.57;;;;;;;;;;5161125;27;20254;-74
2023/02/15 05:04:30;;;;;;;196.50;74.50;;;;;;;;;;5160750;27;20221;-74
2023/02/15 05:06:57;;;;;;;128.55;50.45;;;;;;;;;;5161023;27;20227;-74
2023/02/15 05:09:25;;;;;;;92.57;37.45;;;;;;;;;;5161033;27;20229;-74
2023/02/15 05:11:53;;;;;;;200.60;76.80;;;;;;;;;;5160603;27;20216;-74
2023/02/15 05:14:22;;;;;;;84.18;33.35;;;;;;;;;;5160862;27;20215;-74
2023/02/15 05:16:50;;;;;;;147.60;55.92;;;;;;;;;;5159693;27;20614;-75
2023/02/15 05:19:17;;;;;;;78.32;30.42;;;;;;;;;;5130070;27;20300;-74
2023/02/15 05:21:45;;;;;;;190.90;71.10;;;;;;;;;;5130516;27;20204;-74
2023/02/15 05:29:47;;;;;;;83.10;32.03;;;;;;;;;;5139578;27;20272;-74
2023/02/15 05:32:15;;;;;;;147.23;55.80;;;;;;;;;;5139697;27;20226;-74
2023/02/15 05:34:43;;;;;;;148.95;53.70;;;;;;;;;;5139624;27;20215;-74
2023/02/15 05:37:11;;;;;;;189.10;70.40;;;;;;;;;;5132177;27;20238;-75
2023/02/15 05:39:39;;;;;;;155.60;57.42;;;;;;;;;;5117716;28;20287;-74
2023/02/15 05:42:07;;;;;;;76.90;30.15;;;;;;;;;;5119522;28;20227;-74
2023/02/15 05:44:35;;;;;;;191.95;71.65;;;;;;;;;;5118665;28;20216;-74
2023/02/15 05:47:06;;;;;;;78.65;29.35;;;;;;;;;;5118245;28;20216;-74
2023/02/15 05:49:35;;;;;;;142.05;56.65;;;;;;;;;;5119014;28;20292;-74
2023/02/15 05:52:03;;;;;;;141.77;56.03;;;;;;;;;;5119169;28;20230;-74
2023/02/15 05:54:30;;;;;;;163.77;61.58;;;;;;;;;;5136055;27;20594;-74
2023/02/15 05:56:58;;;;;;;201.00;73.60;;;;;;;;;;5138821;27;20608;-74
2023/02/15 05:59:27;;;;;;;191.38;72.47;;;;;;;;;;5137574;27;20238;-74
2023/02/15 06:01:55;;;;;;;132.90;54.28;;;;;;;;;;5122656;27;20237;-74
2023/02/15 06:04:25;;;;;;;187.68;69.15;;;;;;;;;;5117997;28;20216;-74
2023/02/15 06:06:53;;;;;;;143.55;53.60;;;;;;;;;;5117995;28;20217;-74
2023/02/15 06:09:20;;;;;;;143.27;55.92;;;;;;;;;;5136752;27;20226;-74
2023/02/15 06:11:48;;;;;;;191.55;75.15;;;;;;;;;;5137358;27;20215;-75
2023/02/15 06:14:15;;;;;;;149.68;56.92;;;;;;;;;;5138614;27;20216;-74
2023/02/15 06:16:43;;;;;;;192.88;73.30;;;;;;;;;;5136526;27;20219;-74
2023/02/15 06:19:18;;;;;;;142.45;59.15;;;;;;;;;;5116572;27;20232;-75
2023/02/15 06:21:48;;;;;;;77.05;29.67;;;;;;;;;;5136863;27;20491;-76
2023/02/15 06:24:15;;;;;;;181.98;69.60;;;;;;;;;;5134402;27;20221;-74
2023/02/15 06:26:43;;;;;;;184.18;69.28;;;;;;;;;;5136877;27;20218;-73
2023/02/15 06:29:10;;;;;;;146.93;55.85;;;;;;;;;;5136531;27;20210;-73
2023/02/15 06:31:38;;;;;;;140.98;60.10;;;;;;;;;;5135053;27;20221;-73
2023/02/15 06:34:06;;;;;;;147.18;55.05;;;;;;;;;;5135566;27;20224;-73
2023/02/15 06:36:45;;;;;;;153.98;58.45;;;;;;;;;;5136102;27;20612;-75
2023/02/15 06:39:15;;;;;;;182.60;71.13;;;;;;;;;;5134988;27;20253;-74
2023/02/15 06:41:44;;;;;;;188.40;74.75;;;;;;;;;;5130883;27;20210;-72
2023/02/15 06:44:15;;;;;;;141.55;56.38;;;;;;;;;;5135749;27;20246;-74
2023/02/15 06:46:43;;;;;;;188.90;69.68;;;;;;;;;;5136107;27;20463;-75
2023/02/15 06:49:11;;;;;;;21.85;20.67;;;;;;;;;;5132796;27;20625;-75
2023/02/15 06:51:39;;;;;;;85.30;33.22;;;;;;;;;;5135043;27;20242;-74
2023/02/15 06:54:08;;;;;;;145.88;56.97;;;;;;;;;;5136671;27;20613;-75
2023/02/15 06:56:40;;;;;;;82.13;34.80;;;;;;;;;;5136174;27;20226;-74
2023/02/15 06:59:07;;;;;;;147.80;55.58;;;;;;;;;;5135252;28;20234;-74
2023/02/15 07:01:36;;;;;;;142.38;58.55;;;;;;;;;;5135955;28;20225;-74
2023/02/15 07:04:07;;;;;;;186.45;71.35;;;;;;;;;;5130104;28;20218;-74
2023/02/15 07:06:35;;;;;;;142.55;58.22;;;;;;;;;;5136405;28;20226;-75
2023/02/15 07:09:05;;;;;;;179.57;68.82;;;;;;;;;;5136152;28;20482;-75
2023/02/15 07:14:20;;;;;;;188.27;72.65;;;;;;;;;;5134898;28;20221;-74
2023/02/15 07:16:48;;;;;;;176.32;66.90;;;;;;;;;;5135844;28;20504;-75
2023/02/15 07:19:19;;;;;;;156.32;61.97;;;;;;;;;;5134146;28;20228;-72
2023/02/15 07:21:48;;;;;;;126.80;53.17;;;;;;;;;;5135473;28;20215;-74
2023/02/15 07:24:18;;;;;;;152.25;59.95;;;;;;;;;;5130982;28;20287;-75
2023/02/15 07:26:48;;;;;;;123.95;53.15;;;;;;;;;;5136233;28;20212;-75
2023/02/15 07:29:16;;;;;;;138.02;56.50;;;;;;;;;;5136574;28;20221;-73
2023/02/15 07:31:52;;;;;;;80.93;37.42;;;;;;;;;;5135243;27;20272;-73
2023/02/15 07:34:20;;;;;;;187.75;72.78;;;;;;;;;;5141913;27;20214;-72
2023/02/15 07:36:54;;;;;;;193.70;74.97;;;;;;;;;;5132009;28;20297;-75
2023/02/15 07:39:23;;;;;;;186.48;71.57;;;;;;;;;;5132324;28;20226;-75
2023/02/15 07:41:56;;;;;;;134.20;54.33;;;;;;;;;;5126198;28;20289;-73
2023/02/15 07:44:31;;;;;;;143.48;55.30;;;;;;;;;;5132562;27;20242;-75
2023/02/15 07:47:13;;;;;;;141.55;53.78;;;;;;;;;;5134778;28;20277;-73
2023/02/15 07:49:50;;;;;;;144.95;57.22;;;;;;;;;;5134625;27;20630;-73
2023/02/15 07:52:18;;;;;;;146.30;54.17;;;;;;;;;;5135201;28;20675;-73
2023/02/15 07:54:53;;;;;;;150.35;61.70;;;;;;;;;;5136244;28;20219;-75
2023/02/15 07:57:45;;;;;;;137.07;53.25;;;;;;;;;;5135091;28;20329;-73
2023/02/15 08:00:14;;;;;;;194.45;73.40;;;;;;;;;;5134167;28;20231;-75
2023/02/15 08:02:45;;;;;;;142.02;59.03;;;;;;;;;;5125767;27;20208;-74
2023/02/15 08:05:19;;;;;;;196.60;73.97;;;;;;;;;;5135751;27;20217;-73
2023/02/15 08:07:46;;;;;;;186.43;71.07;;;;;;;;;;5130794;27;20229;-73
2023/02/15 08:11:24;;;;;;;167.63;61.42;;;;;;;;;;5138219;27;20237;-74
2023/02/15 08:13:03;;;;;;;83.78;33.20;;;;;;;;;;5131764;27;20210;-74
2023/02/15 08:15:45;;;;;;;136.05;57.25;;;;;;;;;;5134603;27;20219;-76
2023/02/15 08:18:16;;;;;;;141.77;56.85;;;;;;;;;;5138423;27;20225;-75
2023/02/15 08:20:46;;;;;;;142.75;53.22;;;;;;;;;;5125482;27;20228;-72
2023/02/15 08:23:15;;;;;;;142.85;53.17;;;;;;;;;;5128281;27;20215;-74
2023/02/15 08:25:48;;;;;;;83.10;32.45;;;;;;;;;;5143120;27;20216;-74
2023/02/15 08:28:22;;;;;;;169.13;62.83;;;;;;;;;;5131837;27;20843;-75
2023/02/15 08:30:50;;;;;;;136.05;59.85;;;;;;;;;;5133629;27;20240;-75
2023/02/15 08:33:25;;;;;;;188.82;71.15;;;;;;;;;;5124727;27;20225;-75
2023/02/15 08:35:55;;;;;;;194.38;70.18;;;;;;;;;;5136603;27;20207;-73
2023/02/15 08:38:23;;;;;;;86.18;37.67;;;;;;;;;;5125903;27;20302;-75
2023/02/15 08:40:51;;;;;;;156.38;61.33;;;;;;;;;;5137573;27;20225;-75
2023/02/15 08:43:31;;;;;;;84.30;35.80;;;;;;;;;;5137129;27;20224;-76
2023/02/15 08:46:03;;;;;;;171.30;65.70;;;;;;;;;;5137508;27;20264;-74
2023/02/15 08:49:07;;;;;;;186.88;72.50;;;;;;;;;;5135704;27;20251;-73
2023/02/15 08:51:36;;;;;;;160.30;62.10;;;;;;;;;;5136444;27;20212;-74
2023/02/15 08:54:08;;;;;;;88.68;37.85;;;;;;;;;;5146551;27;20554;-74
2023/02/15 08:56:42;;;;;;;149.77;59.85;;;;;;;;;;5140572;27;20306;-75
2023/02/15 08:59:28;;;;;;;206.80;78.25;;;;;;;;;;5136940;27;20342;-73
2023/02/15 09:02:41;;;;;;;210.00;74.78;;;;;;;;;;5133619;27;20227;-73
2023/02/15 09:05:12;;;;;;;90.95;34.78;;;;;;;;;;5128162;27;20266;-74
2023/02/15 09:07:46;;;;;;;84.65;33.42;;;;;;;;;;5133871;27;21108;-74
2023/02/15 09:13:38;;;;;;;172.85;63.25;;;;;;;;;;5135134;27;20212;-74
2023/02/15 09:16:24;;;;;;;174.90;64.65;;;;;;;;;;5133783;27;20217;-74
2023/02/15 09:19:10;;;;;;;154.98;64.00;;;;;;;;;;5136351;27;20216;-75
2023/02/15 09:22:06;;;;;;;149.18;64.55;;;;;;;;;;5124568;27;20267;-75
2023/02/15 09:24:55;;;;;;;156.43;57.03;;;;;;;;;;5138480;27;20456;-78
2023/02/15 09:33:06;;;;;;;210.55;80.55;;;;;;;;;;5105914;27;20222;-73
2023/02/15 09:35:45;;;;;;;154.43;60.92;;;;;;;;;;5136401;27;20569;-75
2023/02/15 09:38:26;;;;;;;215.50;78.90;;;;;;;;;;5124549;27;20498;-75
2023/02/15 09:41:00;;;;;;;177.27;62.78;;;;;;;;;;5130569;27;20244;-75
2023/02/15 09:43:49;;;;;;;167.93;65.43;;;;;;;;;;5119098;28;20721;-75
2023/02/15 09:46:33;;;;;;;150.48;60.90;;;;;;;;;;5125416;27;20223;-74
2023/02/15 09:49:09;;;;;;;156.82;61.33;;;;;;;;;;5123969;27;20481;-75
2023/02/15 09:55:11;;;;;;;210.80;77.13;;;;;;;;;;5079938;28;20212;-74
2023/02/15 09:58:06;;;;;;;223.68;77.38;;;;;;;;;;5109705;28;20221;-76
2023/02/15 10:03:50;;;;;;;175.00;66.70;;;;;;;;;;5094885;28;20214;-74
2023/02/15 10:06:29;;;;;;;186.90;67.93;;;;;;;;;;5096929;28;20227;-75
2023/02/15 10:09:08;;;;;;;218.70;79.47;;;;;;;;;;5115963;28;20210;-75
2023/02/15 10:11:55;;;;;;;174.25;64.95;;;;;;;;;;5113654;28;20256;-75
2023/02/15 10:14:58;;;;;;;164.38;63.83;;;;;;;;;;5112990;28;20219;-75
2023/02/15 10:17:37;;;;;;;145.85;58.72;;;;;;;;;;5037253;28;20217;-74
2023/02/15 10:20:17;;;;;;;218.55;80.45;;;;;;;;;;5034032;28;20235;-75
2023/02/15 10:26:17;;;;;;;172.50;65.57;;;;;;;;;;5114954;28;20308;-74
2023/02/15 10:29:06;;;;;;;167.93;60.45;;;;;;;;;;5114361;28;20300;-76
2023/02/15 10:31:39;;;;;;;158.18;60.58;;;;;;;;;;5116976;28;20257;-75
2023/02/15 10:34:19;;;;;;;159.68;62.65;;;;;;;;;;5116705;28;20311;-74
2023/02/15 10:37:06;;;;;;;216.23;80.45;;;;;;;;;;5104487;28;20242;-76
2023/02/15 10:39:48;;;;;;;162.32;63.20;;;;;;;;;;5083200;28;20546;-75
2023/02/15 10:42:23;;;;;;;210.73;76.38;;;;;;;;;;5115967;28;20229;-75
2023/02/15 10:45:04;;;;;;;220.35;78.88;;;;;;;;;;5114541;28;20213;-76
2023/02/15 10:47:53;;;;;;;162.65;62.17;;;;;;;;;;5116065;28;20218;-75
2023/02/15 10:50:50;;;;;;;159.00;59.03;;;;;;;;;;5115745;28;20220;-76
2023/02/15 10:53:34;;;;;;;181.43;63.40;;;;;;;;;;5058408;28;20229;-75
2023/02/15 10:56:11;;;;;;;220.25;78.32;;;;;;;;;;5106411;28;20268;-75
2023/02/15 10:58:44;;;;;;;169.38;64.57;;;;;;;;;;5106407;28;20226;-76
2023/02/15 11:01:38;;;;;;;168.85;68.70;;;;;;;;;;5111604;28;20770;-75
2023/02/15 11:04:26;;;;;;;153.93;57.40;;;;;;;;;;5104305;28;20599;-72
2023/02/15 11:07:01;;;;;;;167.55;62.90;;;;;;;;;;5112829;28;20212;-74
2023/02/15 11:09:35;;;;;;;232.18;86.40;;;;;;;;;;5097390;28;20223;-73
2023/02/15 11:12:25;;;;;;;170.98;68.43;;;;;;;;;;5099581;28;20282;-72
2023/02/15 11:15:01;;;;;;;186.07;67.75;;;;;;;;;;5104627;28;20209;-73
2023/02/15 11:17:34;;;;;;;191.20;73.80;;;;;;;;;;5111818;28;20628;-74
2023/02/15 11:20:10;;;;;;;236.18;83.93;;;;;;;;;;5115345;28;20325;-74
2023/02/15 11:23:01;;;;;;;233.50;85.70;;;;;;;;;;5109142;28;20218;-74
2023/02/15 11:25:34;;;;;;;171.25;63.38;;;;;;;;;;5101237;28;20215;-73
2023/02/15 11:28:06;;;;;;;232.70;80.38;;;;;;;;;;5116375;28;20213;-74
2023/02/15 11:30:40;;;;;;;165.32;62.00;;;;;;;;;;5113928;28;20214;-74
2023/02/15 11:33:18;;;;;;;193.07;69.07;;;;;;;;;;5114466;28;20241;-74
2023/02/15 11:36:00;;;;;;;189.40;66.30;;;;;;;;;;5106356;28;20219;-75
2023/02/15 11:38:30;;;;;;;191.02;64.82;;;;;;;;;;5097412;28;20302;-73
2023/02/15 11:40:59;;;;;;;245.73;81.47;;;;;;;;;;5105801;27;20230;-73
2023/02/15 11:43:32;;;;;;;167.23;66.53;;;;;;;;;;5134129;27;20869;-73
2023/02/15 11:46:00;;;;;;;194.18;69.40;;;;;;;;;;5117839;27;20223;-74
2023/02/15 11:48:31;;;;;;;187.57;68.05;;;;;;;;;;5111699;28;20223;-74
2023/02/15 11:50:59;;;;;;;248.15;81.97;;;;;;;;;;5118107;28;20215;-72
2023/02/15 11:53:37;;;;;;;207.23;67.97;;;;;;;;;;5112300;28;20219;-73
2023/02/15 11:56:05;;;;;;;208.57;71.25;;;;;;;;;;5099445;28;20588;-73
2023/02/15 11:58:40;;;;;;;257.23;88.53;;;;;;;;;;5121281;27;20226;-71
2023/02/15 12:01:11;;;;;;;183.07;66.80;;;;;;;;;;5116777;28;20238;-73
2023/02/15 12:03:45;;;;;;;252.88;87.75;;;;;;;;;;5113546;27;20222;-72
2023/02/15 12:06:19;;;;;;;246.18;80.13;;;;;;;;;;5106619;28;20215;-73
2023/02/15 12:09:01;;;;;;;245.13;83.35;;;;;;;;;;5119353;28;20513;-73
2023/02/15 12:11:56;;;;;;;201.68;72.22;;;;;;;;;;5116228;27;20204;-74
2023/02/15 12:14:35;;;;;;;238.02;81.13;;;;;;;;;;5109348;28;20587;-73
2023/02/15 12:17:16;;;;;;;186.10;69.05;;;;;;;;;;5116308;28;20642;-73
2023/02/15 12:19:45;;;;;;;204.25;68.82;;;;;;;;;;5105753;27;20212;-73
2023/02/15 12:22:24;;;;;;;242.02;85.00;;;;;;;;;;5114161;27;20274;-73
2023/02/15 12:24:57;;;;;;;244.38;82.90;;;;;;;;;;5115722;28;20218;-73
2023/02/15 12:27:36;;;;;;;184.77;68.43;;;;;;;;;;5110096;28;20739;-74
2023/02/15 12:30:09;;;;;;;235.70;80.80;;;;;;;;;;5109397;28;20275;-73
2023/02/15 12:32:37;;;;;;;250.23;82.90;;;;;;;;;;5101225;28;20223;-73
2023/02/15 12:35:40;;;;;;;241.00;80.43;;;;;;;;;;5098261;28;20215;-73
2023/02/15 12:38:27;;;;;;;254.43;85.65;;;;;;;;;;5110227;28;20690;-74
2023/02/15 12:41:02;;;;;;;182.00;70.70;;;;;;;;;;5107615;28;20241;-73
2023/02/15 12:43:43;;;;;;;253.32;85.63;;;;;;;;;;5100572;28;20214;-73
2023/02/15 12:46:25;;;;;;;247.75;83.13;;;;;;;;;;5113150;27;20235;-74
2023/02/15 12:49:21;;;;;;;253.30;86.38;;;;;;;;;;5112112;28;20327;-73
2023/02/15 12:51:59;;;;;;;242.55;83.53;;;;;;;;;;5108311;27;20355;-74
2023/02/15 12:55:03;;;;;;;240.27;83.03;;;;;;;;;;5125365;27;20211;-73
2023/02/15 12:57:32;;;;;;;244.23;80.85;;;;;;;;;;5103050;28;20289;-74
2023/02/15 13:00:04;;;;;;;236.52;80.88;;;;;;;;;;5112144;28;20283;-73
2023/02/15 13:02:41;;;;;;;249.15;85.03;;;;;;;;;;5118143;27;20348;-74
2023/02/15 13:05:25;;;;;;;251.68;82.78;;;;;;;;;;5111895;28;20211;-73
2023/02/15 13:07:58;;;;;;;244.10;85.82;;;;;;;;;;5115754;28;20288;-74
2023/02/15 13:10:47;;;;;;;185.77;68.97;;;;;;;;;;5104459;28;20216;-73
2023/02/15 13:13:47;;;;;;;243.35;82.72;;;;;;;;;;5107323;28;20207;-73
2023/02/15 13:16:43;;;;;;;177.02;66.18;;;;;;;;;;5106544;28;20218;-74
2023/02/15 13:19:31;;;;;;;;;;;;;;;;;;;;;
2023/02/15 13:22:08;;;;;;;236.60;83.07;;;;;;;;;;5096245;28;20595;-75
2023/02/15 13:24:44;;;;;;;199.65;70.13;;;;;;;;;;5108364;27;20523;-72
2023/02/15 13:27:19;;;;;;;263.80;85.32;;;;;;;;;;5104486;27;20285;-73
2023/02/15 13:29:53;;;;;;;257.15;89.55;;;;;;;;;;5114267;27;20218;-74
2023/02/15 13:32:36;;;;;;;259.05;85.10;;;;;;;;;;5108483;28;20232;-74
2023/02/15 13:35:24;;;;;;;262.67;89.88;;;;;;;;;;5102092;28;20223;-74
2023/02/15 13:38:29;;;;;;;262.58;81.68;;;;;;;;;;5108074;27;20251;-73
2023/02/15 13:41:00;;;;;;;256.02;84.57;;;;;;;;;;5103111;28;20644;-73
2023/02/15 13:43:46;;;;;;;187.75;68.93;;;;;;;;;;5115719;27;20281;-73
2023/02/15 13:46:34;;;;;;;245.75;85.63;;;;;;;;;;5111048;28;20208;-73
2023/02/15 13:49:10;;;;;;;259.80;86.90;;;;;;;;;;5104788;28;20228;-72
2023/02/15 13:51:49;;;;;;;265.00;84.88;;;;;;;;;;5102024;28;20231;-73
2023/02/15 13:57:33;;;;;;;202.98;69.65;;;;;;;;;;5104928;28;20664;-74
2023/02/15 14:00:17;;;;;;;261.25;88.18;;;;;;;;;;5103643;28;20223;-73
2023/02/15 14:03:10;;;;;;;255.73;83.22;;;;;;;;;;5102479;27;20226;-74
2023/02/15 14:06:04;;;;;;;195.05;69.47;;;;;;;;;;5100364;28;20524;-73
2023/02/15 14:08:51;;;;;;;256.25;88.43;;;;;;;;;;5100420;28;20216;-73
2023/02/15 14:11:23;;;;;;;261.10;86.03;;;;;;;;;;5108947;28;20221;-72
2023/02/15 14:14:04;;;;;;;253.45;87.95;;;;;;;;;;5110660;28;20634;-72
2023/02/15 14:16:42;;;;;;;267.08;89.22;;;;;;;;;;5108610;28;20298;-72
2023/02/15 14:19:41;;;;;;;264.52;88.97;;;;;;;;;;5110841;27;20319;-73
2023/02/15 14:22:17;;;;;;;264.65;90.75;;;;;;;;;;5118035;27;20796;-72
2023/02/15 14:28:16;;;;;;;256.48;85.70;;;;;;;;;;5103320;28;20231;-72
2023/02/15 14:31:06;;;;;;;203.75;71.22;;;;;;;;;;5097627;28;20227;-72
2023/02/15 14:34:00;;;;;;;252.02;84.25;;;;;;;;;;5115347;28;20287;-72
2023/02/15 14:42:48;;;;;;;259.70;87.00;;;;;;;;;;5053600;28;20267;-72
2023/02/15 14:45:32;;;;;;;199.45;73.20;;;;;;;;;;5082014;28;20279;-73
2023/02/15 14:48:06;;;;;;;256.05;83.72;;;;;;;;;;5116895;28;20311;-72
2023/02/15 14:53:41;;;;;;;256.20;84.57;;;;;;;;;;5100202;28;20281;-73
2023/02/15 14:56:44;;;;;;;192.57;68.65;;;;;;;;;;5100088;28;20824;-71
2023/02/15 14:59:25;;;;;;;213.25;77.30;;;;;;;;;;5096980;28;20254;-72
2023/02/15 15:02:18;;;;;;;267.45;88.72;;;;;;;;;;5111834;28;20223;-73
2023/02/15 15:05:03;;;;;;;270.27;89.03;;;;;;;;;;5095558;28;20228;-71
2023/02/15 15:07:42;;;;;;;253.52;83.95;;;;;;;;;;5095385;28;20235;-72
2023/02/15 15:10:26;;;;;;;198.27;72.95;;;;;;;;;;5094660;28;20653;-73
2023/02/15 15:13:01;;;;;;;259.80;86.45;;;;;;;;;;5108891;28;20203;-72
2023/02/15 15:15:47;;;;;;;265.17;91.32;;;;;;;;;;5120074;28;20208;-72
2023/02/15 15:18:48;;;;;;;258.67;83.82;;;;;;;;;;5131694;27;20458;-73
2023/02/15 15:21:31;;;;;;;190.93;71.32;;;;;;;;;;5137131;27;20223;-73
2023/02/15 15:24:04;;;;;;;264.63;87.70;;;;;;;;;;5117012;28;20207;-73
2023/02/15 15:26:40;;;;;;;256.63;88.60;;;;;;;;;;5109332;28;20215;-73
2023/02/15 15:29:08;;;;;;;194.38;72.47;;;;;;;;;;5110060;28;20207;-73
2023/02/15 15:31:59;;;;;;;276.85;85.93;;;;;;;;;;5106338;28;20713;-73
2023/02/15 15:34:48;;;;;;;261.35;86.22;;;;;;;;;;5106766;28;20215;-73
2023/02/15 15:37:32;;;;;;;256.25;88.55;;;;;;;;;;5106301;28;20213;-73
2023/02/15 15:40:22;;;;;;;183.60;66.65;;;;;;;;;;5109237;28;20635;-74
2023/02/15 15:43:00;;;;;;;255.63;85.93;;;;;;;;;;5109245;28;20238;-73
2023/02/15 15:45:55;;;;;;;250.35;86.38;;;;;;;;;;5110281;28;20211;-74
2023/02/15 15:48:49;;;;;;;180.77;68.53;;;;;;;;;;5106817;28;20324;-72
2023/02/15 15:51:36;;;;;;;253.95;84.28;;;;;;;;;;5106427;28;20573;-73